Time;durP1;ratioP1;P1;durP2;ratioP2;P2;SDS_P1;SDS_P2;PMS_P1;PMS_P2;Temp;Humidity;BMP_temperature;BMP_pressure;BME280_temperature;BME280_humidity;BME280_pressure;Samples;Min_cycle;Max_cycle;Signal;HPM_P1;HPM_P2
2022/10/16 00:00:11;;;;;;;0.20;0.00;;;19.50;99.90;;;;;;25615998;23;20425;-79
2022/10/16 00:10:16;;;;;;;0.20;0.00;;;19.40;99.90;;;;;;25616054;23;20413;-79
2022/10/16 00:20:21;;;;;;;0.20;0.08;;;19.30;99.90;;;;;;25615543;23;20433;-77
2022/10/16 00:30:26;;;;;;;0.20;0.00;;;19.30;99.90;;;;;;25589314;23;20371;-80
2022/10/16 00:40:31;;;;;;;0.20;0.00;;;19.20;99.90;;;;;;25640857;22;20439;-79
2022/10/16 00:50:36;;;;;;;0.20;0.10;;;19.00;99.90;;;;;;25639906;23;20367;-83
2022/10/16 01:00:41;;;;;;;0.20;0.00;;;19.00;99.90;;;;;;25617409;23;20395;-82
2022/10/16 01:10:57;;;;;;;0.20;0.00;;;19.30;99.90;;;;;;25613639;23;20375;-83
2022/10/16 01:21:05;;;;;;;0.20;0.07;;;19.40;99.90;;;;;;25639109;23;20403;-83
2022/10/16 01:31:12;;;;;;;0.20;0.00;;;19.30;99.90;;;;;;25615584;23;20458;-82
2022/10/16 01:41:20;;;;;;;0.20;0.10;;;19.40;99.90;;;;;;25613422;23;20376;-82
2022/10/16 01:51:27;;;;;;;0.20;0.00;;;19.30;99.90;;;;;;25612353;23;20921;-80
2022/10/16 02:01:34;;;;;;;0.20;0.00;;;19.30;99.90;;;;;;25618576;23;20442;-80
2022/10/16 02:11:39;;;;;;;0.20;0.00;;;19.30;99.90;;;;;;25619313;23;20383;-77
2022/10/16 02:21:49;;;;;;;0.20;0.00;;;19.20;99.90;;;;;;25616735;23;20408;-77
2022/10/16 02:32:00;;;;;;;0.20;0.10;;;19.30;99.90;;;;;;25645380;22;20388;-80
2022/10/16 02:42:04;;;;;;;0.20;0.00;;;19.40;99.90;;;;;;25620046;23;20395;-84
2022/10/16 02:52:09;;;;;;;0.20;0.00;;;19.80;99.90;;;;;;25627159;23;20409;-85
2022/10/16 03:02:14;;;;;;;0.20;0.00;;;19.60;99.90;;;;;;25633336;23;20387;-85
2022/10/16 03:12:22;;;;;;;0.20;0.00;;;19.50;99.90;;;;;;25621238;23;20431;-80
2022/10/16 03:22:26;;;;;;;0.20;0.10;;;19.10;99.90;;;;;;25643560;23;20447;-82
2022/10/16 03:32:31;;;;;;;0.20;0.00;;;18.80;99.90;;;;;;25618411;23;20391;-82
2022/10/16 03:42:34;;;;;;;0.20;0.00;;;18.70;99.90;;;;;;25642902;23;20375;-81
2022/10/16 03:52:39;;;;;;;0.20;0.00;;;18.60;99.90;;;;;;25641071;23;20462;-81
2022/10/16 04:02:43;;;;;;;0.20;0.00;;;18.60;99.90;;;;;;25642994;22;20441;-81
2022/10/16 04:12:54;;;;;;;0.20;0.00;;;18.80;99.90;;;;;;25642423;23;20375;-81
2022/10/16 04:22:58;;;;;;;0.20;0.00;;;18.80;99.90;;;;;;25616318;23;20399;-81
2022/10/16 04:33:03;;;;;;;0.20;0.00;;;19.10;99.90;;;;;;25641454;23;20421;-82
2022/10/16 04:43:07;;;;;;;0.20;0.00;;;19.10;99.90;;;;;;25640512;22;20399;-81
2022/10/16 04:53:12;;;;;;;0.20;0.00;;;19.10;99.90;;;;;;25640493;23;20352;-77
2022/10/16 05:03:16;;;;;;;0.20;0.00;;;19.00;99.90;;;;;;25638520;22;20391;-77
2022/10/16 05:13:23;;;;;;;0.20;0.00;;;19.00;99.90;;;;;;25639703;23;20359;-78
2022/10/16 05:23:26;;;;;;;0.20;0.00;;;18.90;99.90;;;;;;25611239;23;20412;-80
2022/10/16 05:33:31;;;;;;;0.20;0.00;;;18.90;99.90;;;;;;25645192;23;20431;-80
2022/10/16 05:43:35;;;;;;;0.20;0.00;;;18.80;99.90;;;;;;25642200;23;20399;-81
2022/10/16 05:53:41;;;;;;;0.20;0.00;;;18.70;99.90;;;;;;25644383;23;20364;-79
2022/10/16 06:03:46;;;;;;;0.20;0.00;;;18.60;99.90;;;;;;25644462;23;20374;-84
2022/10/16 06:13:53;;;;;;;0.20;0.00;;;18.70;99.90;;;;;;25618298;23;20451;-81
2022/10/16 06:23:58;;;;;;;0.20;0.00;;;18.60;99.90;;;;;;25645058;23;20414;-82
2022/10/16 06:34:05;;;;;;;0.20;0.00;;;18.70;99.90;;;;;;25642744;23;20356;-80
2022/10/16 06:44:09;;;;;;;0.20;0.00;;;18.70;99.90;;;;;;25619159;23;20478;-79
2022/10/16 06:54:15;;;;;;;0.20;0.00;;;19.30;99.90;;;;;;25618261;23;20439;-77
2022/10/16 07:04:19;;;;;;;0.20;0.08;;;19.60;99.90;;;;;;25615905;23;20423;-80
2022/10/16 07:14:24;;;;;;;0.20;0.00;;;20.00;99.90;;;;;;25617379;23;20446;-81
2022/10/16 07:24:28;;;;;;;0.20;0.00;;;20.10;99.90;;;;;;25641499;23;20463;-80
2022/10/16 07:34:34;;;;;;;0.20;0.00;;;20.40;99.90;;;;;;25639924;23;20432;-80
2022/10/16 07:44:37;;;;;;;0.20;0.00;;;21.30;99.90;;;;;;25615083;23;20481;-77
2022/10/16 07:54:42;;;;;;;0.20;0.00;;;22.20;99.90;;;;;;25636883;23;20486;-78
2022/10/16 08:04:48;;;;;;;0.20;0.00;;;22.70;99.90;;;;;;25613184;23;20383;-83
2022/10/16 08:14:53;;;;;;;0.20;0.00;;;23.00;99.90;;;;;;25638546;23;20432;-76
2022/10/16 08:24:57;;;;;;;0.20;0.00;;;22.90;99.90;;;;;;25610853;22;20403;-77
2022/10/16 08:35:02;;;;;;;0.20;0.00;;;23.10;99.90;;;;;;25638188;23;20390;-78
2022/10/16 08:45:25;;;;;;;0.20;0.00;;;23.60;99.90;;;;;;25637205;23;20401;-79
2022/10/16 08:55:39;;;;;;;0.20;0.00;;;23.40;99.90;;;;;;25609310;23;20439;-79
2022/10/16 09:06:17;;;;;;;0.20;0.00;;;23.60;99.90;;;;;;25633362;23;20387;-84
2022/10/16 09:16:28;;;;;;;0.20;0.00;;;23.60;99.90;;;;;;25560073;23;20431;-81
2022/10/16 09:26:32;;;;;;;0.20;0.00;;;23.60;99.90;;;;;;25610507;23;20387;-83
2022/10/16 09:36:42;;;;;;;0.20;0.00;;;23.50;99.90;;;;;;25609746;23;20421;-82
2022/10/16 09:46:46;;;;;;;0.20;0.00;;;24.00;99.90;;;;;;25584753;23;20387;-82
2022/10/16 09:56:53;;;;;;;0.20;0.00;;;24.00;99.90;;;;;;25606779;23;20387;-79
2022/10/16 10:06:59;;;;;;;0.20;0.00;;;24.00;99.90;;;;;;25633701;23;20461;-77
2022/10/16 10:17:15;;;;;;;0.20;0.00;;;25.00;99.90;;;;;;25585892;23;20364;-78
2022/10/16 10:27:20;;;;;;;0.20;0.08;;;25.20;99.90;;;;;;25635375;23;20359;-78
2022/10/16 10:37:41;;;;;;;0.20;0.00;;;25.40;99.90;;;;;;25612102;23;20393;-76
2022/10/16 10:47:56;;;;;;;0.20;0.00;;;25.90;99.90;;;;;;25636568;23;20458;-77
2022/10/16 10:58:28;;;;;;;0.20;0.10;;;25.70;99.90;;;;;;25640023;23;20387;-77
2022/10/16 11:08:42;;;;;;;0.20;0.00;;;26.20;99.90;;;;;;25610494;23;20376;-75
2022/10/16 11:18:53;;;;;;;0.20;0.00;;;27.10;99.90;;;;;;25635876;23;20379;-75
2022/10/16 11:28:59;;;;;;;0.20;0.00;;;27.40;99.90;;;;;;25635076;23;20461;-78
2022/10/16 11:39:14;;;;;;;0.20;0.00;;;28.00;99.90;;;;;;25630465;23;20363;-75
2022/10/16 11:49:22;;;;;;;0.20;0.00;;;27.90;99.90;;;;;;25607239;23;20576;-75
2022/10/16 11:59:33;;;;;;;0.20;0.00;;;28.00;99.90;;;;;;25607782;23;20368;-75
2022/10/16 12:09:40;;;;;;;0.20;0.00;;;28.30;99.90;;;;;;25636206;22;20443;-72
2022/10/16 12:19:45;;;;;;;0.20;0.00;;;27.70;99.90;;;;;;25635622;23;20493;-74
2022/10/16 12:29:56;;;;;;;0.20;0.00;;;27.90;99.90;;;;;;25636893;23;20368;-73
2022/10/16 12:40:14;;;;;;;0.20;0.00;;;27.80;99.90;;;;;;25634124;23;20363;-72
2022/10/16 12:50:34;;;;;;;0.20;0.00;;;28.70;99.90;;;;;;25634578;23;20411;-74
2022/10/16 13:00:45;;;;;;;0.20;0.00;;;28.30;99.90;;;;;;25636033;23;20439;-73
2022/10/16 13:11:02;;;;;;;0.20;0.00;;;28.20;99.90;;;;;;25635676;23;20382;-72
2022/10/16 13:21:20;;;;;;;0.20;0.00;;;28.80;99.90;;;;;;25609078;22;20387;-74
2022/10/16 13:31:25;;;;;;;0.20;0.00;;;28.90;99.90;;;;;;25634282;23;20390;-73
2022/10/16 13:41:31;;;;;;;0.20;0.00;;;29.20;99.90;;;;;;25633965;22;20494;-72
2022/10/16 13:51:35;;;;;;;0.20;0.00;;;29.10;99.90;;;;;;25635497;23;20421;-73
2022/10/16 14:01:44;;;;;;;0.20;0.00;;;29.80;99.90;;;;;;25640102;23;21089;-73
2022/10/16 14:11:52;;;;;;;0.20;0.00;;;29.20;99.90;;;;;;25640047;23;20968;-74
2022/10/16 14:21:57;;;;;;;0.20;0.00;;;29.90;99.90;;;;;;25638923;23;20513;-73
2022/10/16 14:32:02;;;;;;;0.20;0.00;;;30.20;99.90;;;;;;25614481;23;20383;-74
2022/10/16 14:42:17;;;;;;;0.20;0.00;;;30.20;99.90;;;;;;25639983;22;20435;-75
2022/10/16 14:52:21;;;;;;;0.20;0.00;;;29.70;99.90;;;;;;25635778;22;20395;-72
2022/10/16 15:02:30;;;;;;;0.20;0.00;;;29.30;99.90;;;;;;25608159;23;20424;-74
2022/10/16 15:12:33;;;;;;;0.20;0.03;;;27.50;99.90;;;;;;25637031;22;20456;-74
2022/10/16 15:22:38;;;;;;;0.20;0.00;;;27.70;99.90;;;;;;25635453;23;20429;-76
2022/10/16 15:32:42;;;;;;;0.20;0.00;;;27.40;99.90;;;;;;25635518;23;20417;-76
2022/10/16 15:42:48;;;;;;;0.20;0.00;;;27.10;99.90;;;;;;25635531;23;20425;-76
2022/10/16 15:52:52;;;;;;;0.20;0.00;;;26.00;99.90;;;;;;25633877;23;20470;-75
2022/10/16 16:02:57;;;;;;;0.20;0.00;;;25.00;99.90;;;;;;25610534;23;20481;-73
2022/10/16 16:13:01;;;;;;;0.20;0.00;;;24.80;99.90;;;;;;25633131;23;20507;-76
2022/10/16 16:23:06;;;;;;;0.20;0.00;;;24.60;99.90;;;;;;25633820;23;20454;-75
2022/10/16 16:33:09;;;;;;;0.20;0.00;;;24.50;99.90;;;;;;25607638;22;20447;-75
2022/10/16 16:43:14;;;;;;;0.20;0.00;;;24.40;99.90;;;;;;25633913;22;20437;-76
2022/10/16 16:53:18;;;;;;;0.20;0.00;;;24.10;99.90;;;;;;25632492;23;20368;-76
2022/10/16 17:03:23;;;;;;;0.20;0.00;;;23.80;99.90;;;;;;25633448;23;20411;-77
2022/10/16 17:13:29;;;;;;;0.20;0.08;;;23.30;99.90;;;;;;25605690;23;20372;-71
2022/10/16 17:23:35;;;;;;;0.20;0.00;;;23.30;99.90;;;;;;25629784;23;20469;-74
2022/10/16 17:33:38;;;;;;;0.20;0.00;;;23.10;99.90;;;;;;25631427;23;20372;-71
2022/10/16 17:43:44;;;;;;;0.20;0.00;;;23.00;99.90;;;;;;25606553;23;20470;-75
2022/10/16 17:53:49;;;;;;;0.20;0.00;;;22.70;99.90;;;;;;25631676;22;20388;-73
2022/10/16 18:03:56;;;;;;;0.20;0.00;;;22.30;99.90;;;;;;25632171;23;20399;-75
2022/10/16 18:14:00;;;;;;;0.20;0.00;;;22.00;99.90;;;;;;25631340;22;20812;-75
2022/10/16 18:24:06;;;;;;;0.20;0.05;;;21.80;99.90;;;;;;25623730;23;20376;-75
2022/10/16 18:34:10;;;;;;;0.20;0.00;;;21.80;99.90;;;;;;25606610;23;20455;-76
2022/10/16 18:44:15;;;;;;;0.20;0.08;;;21.80;99.90;;;;;;25635244;23;20376;-77
2022/10/16 18:54:19;;;;;;;0.20;0.00;;;21.80;99.90;;;;;;25634373;23;20416;-75
2022/10/16 19:04:24;;;;;;;0.20;0.00;;;21.90;99.90;;;;;;25611042;22;20425;-74
2022/10/16 19:14:29;;;;;;;0.20;0.05;;;21.90;99.90;;;;;;25639744;22;20435;-74
2022/10/16 19:24:34;;;;;;;0.20;0.00;;;21.90;99.90;;;;;;25635886;23;20376;-75
2022/10/16 19:34:38;;;;;;;0.20;0.10;;;21.90;99.90;;;;;;25634952;22;20368;-76
2022/10/16 19:44:43;;;;;;;0.20;0.00;;;21.90;99.90;;;;;;25636250;22;20439;-77
2022/10/16 19:54:46;;;;;;;0.20;0.00;;;21.80;99.90;;;;;;25635524;23;20368;-76
2022/10/16 20:04:51;;;;;;;0.20;0.00;;;21.80;99.90;;;;;;25636677;23;20497;-75
2022/10/16 20:14:56;;;;;;;0.20;0.00;;;21.50;99.90;;;;;;25611989;23;20386;-75
2022/10/16 20:25:01;;;;;;;0.20;0.00;;;21.60;99.90;;;;;;25636322;23;20537;-74
2022/10/16 20:35:12;;;;;;;0.20;0.00;;;21.50;99.90;;;;;;25636307;23;20454;-76
2022/10/16 20:45:17;;;;;;;0.20;0.00;;;21.30;99.90;;;;;;25635644;23;20439;-75
2022/10/16 20:55:21;;;;;;;0.20;0.00;;;21.20;99.90;;;;;;25636878;23;20376;-73
2022/10/16 21:05:27;;;;;;;0.20;0.00;;;20.90;99.90;;;;;;25635946;22;20395;-75
2022/10/16 21:15:31;;;;;;;0.20;0.00;;;20.80;99.90;;;;;;25642941;23;20380;-80
2022/10/16 21:25:36;;;;;;;0.20;0.00;;;20.60;99.90;;;;;;25611442;23;20402;-80
2022/10/16 21:35:40;;;;;;;0.20;0.00;;;20.50;99.90;;;;;;25589068;23;20440;-77
2022/10/16 21:45:45;;;;;;;0.20;0.00;;;20.30;99.90;;;;;;25611970;23;20431;-77
2022/10/16 21:55:49;;;;;;;0.20;0.00;;;20.30;99.90;;;;;;25639714;22;20439;-79
2022/10/16 22:05:54;;;;;;;0.20;0.00;;;20.30;99.90;;;;;;25638733;23;20382;-80
2022/10/16 22:15:58;;;;;;;0.20;0.00;;;20.20;99.90;;;;;;25644813;22;20419;-83
2022/10/16 22:26:05;;;;;;;0.20;0.00;;;20.30;99.90;;;;;;25619920;22;20431;-82
2022/10/16 22:36:11;;;;;;;0.20;0.00;;;20.00;99.90;;;;;;25644710;23;20501;-82
2022/10/16 22:46:18;;;;;;;0.20;0.00;;;19.80;99.90;;;;;;25643543;23;20368;-82
2022/10/16 22:56:22;;;;;;;0.20;0.00;;;19.80;99.90;;;;;;25643199;23;20506;-81
2022/10/16 23:06:27;;;;;;;0.20;0.00;;;19.60;99.90;;;;;;25619440;22;20447;-81
2022/10/16 23:16:31;;;;;;;0.20;0.00;;;19.50;99.90;;;;;;25616486;23;20365;-80
2022/10/16 23:26:36;;;;;;;0.20;0.00;;;19.60;99.90;;;;;;25642832;23;20372;-77
2022/10/16 23:36:41;;;;;;;0.20;0.00;;;19.80;99.90;;;;;;25643466;23;20458;-78
2022/10/16 23:46:46;;;;;;;0.20;0.00;;;19.80;99.90;;;;;;25643017;22;20371;-83
2022/10/16 23:56:50;;;;;;;0.20;0.00;;;19.90;99.90;;;;;;25616293;23;20404;-82
